sensor_id;sensor_type;location;lat;lon;timestamp;pressure;altitude;pressure_sealevel;temperature;humidity
61740;BME280;47645;45.288;12.038;2022-10-22T00:00:19;1017.7115235391516;;;16.787890625;98.4661289870718
61740;BME280;47645;45.288;12.038;2022-10-22T00:10:21;1017.8642674705832;;;17.0275390625;100
61740;BME280;47645;45.288;12.038;2022-10-22T00:20:22;1017.7563776503548;;;17.09375;100
61740;BME280;47645;45.288;12.038;2022-10-22T00:30:22;1017.6053200849813;;;16.915234375;100
61740;BME280;47645;45.288;12.038;2022-10-22T00:40:24;1017.5630571366218;;;16.787890625;100
61740;BME280;47645;45.288;12.038;2022-10-22T00:50:28;1017.5751348245269;;;16.8796875;100
61740;BME280;47645;45.288;12.038;2022-10-22T01:00:26;1017.4929511392463;;;16.88984375;100
61740;BME280;47645;45.288;12.038;2022-10-22T01:10:39;1017.234441740736;;;16.70625;100
61740;BME280;47645;45.288;12.038;2022-10-22T01:20:40;1017.4027432313876;;;16.4921875;97.94977386480616
61740;BME280;47645;45.288;12.038;2022-10-22T01:30:28;1016.841546971965;;;16.665625;92.98179036297377
61740;BME280;47645;45.288;12.038;2022-10-22T01:40:31;1016.9762095363672;;;16.81328125;90.3000383108862
61740;BME280;47645;45.288;12.038;2022-10-22T01:50:40;1016.858512934076;;;16.884765625;94.37127073223454
61740;BME280;47645;45.288;12.038;2022-10-22T02:00:31;1016.6212546166876;;;16.9560546875;94.41940859384727
61740;BME280;47645;45.288;12.038;2022-10-22T02:10:33;1016.4289242181261;;;17.022265625;100
61740;BME280;47645;45.288;12.038;2022-10-22T02:20:35;1016.2530103795597;;;16.91015625;96.03744837813535
61740;BME280;47645;45.288;12.038;2022-10-22T02:30:35;1016.2947627126373;;;16.808203125;96.81598296033214
61740;BME280;47645;45.288;12.038;2022-10-22T02:40:35;1016.4210747051635;;;17.0376953125;100
61740;BME280;47645;45.288;12.038;2022-10-22T02:50:36;1016.3696698153158;;;16.803125;100
61740;BME280;47645;45.288;12.038;2022-10-22T03:00:37;1016.1710278687085;;;16.808203125;100
61740;BME280;47645;45.288;12.038;2022-10-22T03:10:37;1016.154768905079;;;16.6451171875;94.34894852765672
61740;BME280;47645;45.288;12.038;2022-10-22T03:20:39;1016.0983084712361;;;16.6400390625;96.73187819099417
61740;BME280;47645;45.288;12.038;2022-10-22T03:30:40;1016.1530045153319;;;16.6552734375;90.90076792208644
61740;BME280;47645;45.288;12.038;2022-10-22T03:40:41;1016.2701953344426;;;16.7166015625;95.6729411941497
61740;BME280;47645;45.288;12.038;2022-10-22T03:50:41;1016.1585347375025;;;16.59921875;92.6991631749016
61740;BME280;47645;45.288;12.038;2022-10-22T04:00:42;1015.8996351555211;;;16.7166015625;97.9502058003789
61740;BME280;47645;45.288;12.038;2022-10-22T04:10:50;1015.7257168282886;;;16.59921875;91.09784803366537
61740;BME280;47645;45.288;12.038;2022-10-22T04:20:45;1015.8554102085576;;;16.6349609375;95.29792483085015
61740;BME280;47645;45.288;12.038;2022-10-22T04:30:45;1015.6444757482024;;;16.6298828125;86.6631906810918
61740;BME280;47645;45.288;12.038;2022-10-22T04:40:46;1015.7863164382818;;;16.680859375;93.7034595922961
61740;BME280;47645;45.288;12.038;2022-10-22T04:50:47;1015.6851894370532;;;16.4056640625;89.82511962830597
61740;BME280;47645;45.288;12.038;2022-10-22T05:00:48;1015.5041108672915;;;16.380078125;87.77025681135652
61740;BME280;47645;45.288;12.038;2022-10-22T05:10:48;1015.3515069389214;;;16.497265625;86.92904040585185
61740;BME280;47645;45.288;12.038;2022-10-22T05:20:50;1015.1801104693466;;;16.4361328125;85.90763383602767
61740;BME280;47645;45.288;12.038;2022-10-22T05:30:53;1015.0656587055204;;;16.4412109375;85.90255736405435
61740;BME280;47645;45.288;12.038;2022-10-22T05:40:58;1015.0829981410694;;;16.4158203125;85.52777398768315
61740;BME280;47645;45.288;12.038;2022-10-22T05:50:52;1015.0418046784299;;;16.262890625;87.36421041993623
61740;BME280;47645;45.288;12.038;2022-10-22T06:00:53;1015.1509926200222;;;16.2271484375;87.55043039412672
61740;BME280;47645;45.288;12.038;2022-10-22T06:10:54;1015.151388627416;;;16.380078125;96.22448943997553
61740;BME280;47645;45.288;12.038;2022-10-22T06:20:55;1015.192919088696;;;16.604296875;99.50435339076138
61740;BME280;47645;45.288;12.038;2022-10-22T06:30:57;1015.0860777347089;;;17.0427734375;100
61740;BME280;47645;45.288;12.038;2022-10-22T06:41:02;1015.2554546893371;;;17.333203125;100
61740;BME280;47645;45.288;12.038;2022-10-22T06:51:00;1015.2585696517705;;;17.7052734375;99.12985956936218
61740;BME280;47645;45.288;12.038;2022-10-22T07:01:01;1015.4935723589001;;;17.6033203125;97.6652419508493
61740;BME280;47645;45.288;12.038;2022-10-22T07:11:06;1015.7472750129656;;;17.333203125;98.52082336521204
61740;BME280;47645;45.288;12.038;2022-10-22T07:21:01;1015.746415615413;;;17.60859375;97.37425476708744
61740;BME280;47645;45.288;12.038;2022-10-22T07:31:02;1015.8525999816453;;;17.965234375;95.58909305669022
61740;BME280;47645;45.288;12.038;2022-10-22T07:41:03;1015.813949329273;;;18.4138671875;93.88123679626514
61740;BME280;47645;45.288;12.038;2022-10-22T07:51:04;1015.9218767502019;;;18.765625;91.01806565254051
61740;BME280;47645;45.288;12.038;2022-10-22T08:01:05;1016.1124847861406;;;19.285546875;87.88831515013928
61740;BME280;47645;45.288;12.038;2022-10-22T08:11:05;1016.2402543073777;;;19.71875;86.46030116521685
61740;BME280;47645;45.288;12.038;2022-10-22T08:21:06;1016.2303062191138;;;20.0091796875;84.73114958967624
61740;BME280;47645;45.288;12.038;2022-10-22T08:31:08;1016.1595420034253;;;20.1775390625;83.38913350566204
61740;BME280;47645;45.288;12.038;2022-10-22T08:41:12;1016.0604016741328;;;20.7228515625;80.90439971778292
61740;BME280;47645;45.288;12.038;2022-10-22T08:51:12;1016.1038878455885;;;20.9267578125;77.95240089290736
61740;BME280;47645;45.288;12.038;2022-10-22T09:01:13;1016.1538023365501;;;21.181640625;77.42319758139546
61740;BME280;47645;45.288;12.038;2022-10-22T09:11:20;1016.3213641330086;;;21.1408203125;79.59677080064913
61740;BME280;47645;45.288;12.038;2022-10-22T09:21:19;1016.2022343594915;;;21.92578125;74.9541106520992
61740;BME280;47645;45.288;12.038;2022-10-22T09:31:14;1016.2120299673312;;;21.92578125;71.13661891072007
61740;BME280;47645;45.288;12.038;2022-10-22T09:41:16;1016.2003334469478;;;22.5578125;70.85382052218998
61740;BME280;47645;45.288;12.038;2022-10-22T09:51:19;1016.1280664227802;;;23.2765625;68.49782801753794
61740;BME280;47645;45.288;12.038;2022-10-22T10:01:21;1016.1548119615934;;;23.241015625;66.56961368325332
61740;BME280;47645;45.288;12.038;2022-10-22T10:11:25;1016.0966272840566;;;23.3734375;67.55828377338392
61740;BME280;47645;45.288;12.038;2022-10-22T10:21:28;1016.1043684086828;;;23.485546875;68.51093629134132
61740;BME280;47645;45.288;12.038;2022-10-22T10:31:31;1016.0631521509358;;;23.0931640625;69.2646310500718
61740;BME280;47645;45.288;12.038;2022-10-22T10:41:38;1015.9879630528952;;;23.6486328125;68.42874836859721
61740;BME280;47645;45.288;12.038;2022-10-22T10:51:35;1015.9104505787635;;;24.17890625;66.24389254566324
61740;BME280;47645;45.288;12.038;2022-10-22T11:01:34;1015.8060980476002;;;24.688671875;64.51309389132709
61740;BME280;47645;45.288;12.038;2022-10-22T11:11:30;1015.9111876715933;;;25.03515625;63.66735001884638
61740;BME280;47645;45.288;12.038;2022-10-22T11:21:28;1015.7340194753107;;;25.30546875;62.78164927785581
61740;BME280;47645;45.288;12.038;2022-10-22T11:31:29;1015.9939715633224;;;23.9443359375;68.64232184620796
61740;BME280;47645;45.288;12.038;2022-10-22T11:41:32;1016.1388184265087;;;22.5732421875;75.29570380419781
61740;BME280;47645;45.288;12.038;2022-10-22T11:51:33;1016.2565472271303;;;21.90546875;78.99162435789263
61740;BME280;47645;45.288;12.038;2022-10-22T12:01:41;1016.1462045760355;;;21.726953125;82.9194377395644
61740;BME280;47645;45.288;12.038;2022-10-22T12:11:37;1016.2256997749322;;;21.619921875;82.81919643078461
61740;BME280;47645;45.288;12.038;2022-10-22T12:21:37;1016.2801635655309;;;21.3345703125;81.28026565952253
61740;BME280;47645;45.288;12.038;2022-10-22T12:31:39;1016.6261475338653;;;21.1611328125;82.86518091956118
61740;BME280;47645;45.288;12.038;2022-10-22T12:41:36;1016.6853164734159;;;21.1255859375;82.97631592715474
61740;BME280;47645;45.288;12.038;2022-10-22T12:51:37;1016.658520793097;;;21.1765625;79.47008496741414
61740;BME280;47645;45.288;12.038;2022-10-22T13:01:40;1016.6775011212693;;;21.385546875;77.792274513313
61740;BME280;47645;45.288;12.038;2022-10-22T13:11:41;1016.6829725705246;;;21.512890625;80.02273849109876
61740;BME280;47645;45.288;12.038;2022-10-22T13:21:40;1016.7885601143332;;;21.3548828125;79.07587629622117
61740;BME280;47645;45.288;12.038;2022-10-22T13:31:45;1017.008600655968;;;21.3140625;80.67490407291895
61740;BME280;47645;45.288;12.038;2022-10-22T13:41:43;1017.0031895759989;;;21.4365234375;78.12621354161917
61740;BME280;47645;45.288;12.038;2022-10-22T13:51:44;1016.9435975649221;;;21.40078125;76.95648433879803
61740;BME280;47645;45.288;12.038;2022-10-22T14:01:46;1016.9098061390399;;;21.385546875;74.69392922715636
61740;BME280;47645;45.288;12.038;2022-10-22T14:11:46;1016.9836044782372;;;21.405859375;73.48243689809573
61740;BME280;47645;45.288;12.038;2022-10-22T14:21:48;1016.8173196547989;;;21.696484375;72.36969670359419
61740;BME280;47645;45.288;12.038;2022-10-22T14:31:49;1016.7889557186188;;;22.0583984375;70.402999355329
61740;BME280;47645;45.288;12.038;2022-10-22T14:41:50;1016.8913018862831;;;22.037890625;69.51117092992466
61740;BME280;47645;45.288;12.038;2022-10-22T14:51:51;1016.811918238642;;;22.512109375;68.55841557306145
61740;BME280;47645;45.288;12.038;2022-10-22T15:01:53;1016.9388835532726;;;22.72109375;68.43903494068613
61740;BME280;47645;45.288;12.038;2022-10-22T15:11:53;1017.030372650181;;;22.6138671875;68.66117792224611
61740;BME280;47645;45.288;12.038;2022-10-22T15:21:55;1017.0161285298118;;;22.0939453125;70.25049978563227
61740;BME280;47645;45.288;12.038;2022-10-22T15:31:57;1017.1336690666247;;;21.915625;71.41099165200093
61740;BME280;47645;45.288;12.038;2022-10-22T15:41:58;1017.2676288711123;;;21.7373046875;70.33558227890585
61740;BME280;47645;45.288;12.038;2022-10-22T15:51:58;1017.299169034104;;;21.4109375;76.20585192094954
61740;BME280;47645;45.288;12.038;2022-10-22T16:01:59;1017.4351594266717;;;21.405859375;75.88130033038723
61740;BME280;47645;45.288;12.038;2022-10-22T16:12:00;1017.4659564387559;;;20.891015625;78.11375421042783
61740;BME280;47645;45.288;12.038;2022-10-22T16:22:03;1017.6768407597514;;;20.860546875;77.68004735629823
61740;BME280;47645;45.288;12.038;2022-10-22T16:32:03;1017.8421925409826;;;20.4986328125;79.26064290665099
61740;BME280;47645;45.288;12.038;2022-10-22T16:42:04;1018.020657766888;;;20.1009765625;80.58118775741471
61740;BME280;47645;45.288;12.038;2022-10-22T16:52:05;1018.1995792508433;;;19.953125;81.19762211162735
61740;BME280;47645;45.288;12.038;2022-10-22T17:02:08;1018.3431009350887;;;19.72890625;81.74826058630507
61740;BME280;47645;45.288;12.038;2022-10-22T17:12:07;1018.562373204516;;;19.5556640625;82.26442951755418
61740;BME280;47645;45.288;12.038;2022-10-22T17:22:08;1018.8364578927643;;;19.2650390625;83.27615101604685
61740;BME280;47645;45.288;12.038;2022-10-22T17:32:09;1019.0596710980894;;;19.1376953125;83.6531293404198
61740;BME280;47645;45.288;12.038;2022-10-22T17:42:10;1019.1567231627907;;;19.0611328125;83.5515094352703
61740;BME280;47645;45.288;12.038;2022-10-22T17:52:13;1019.2292140052475;;;18.6126953125;85.48653358431824
61740;BME280;47645;45.288;12.038;2022-10-22T18:02:15;1019.2599519576746;;;18.6330078125;84.99366313741575
61740;BME280;47645;45.288;12.038;2022-10-22T18:12:14;1019.4284942247328;;;18.4341796875;86.23498868960613
61740;BME280;47645;45.288;12.038;2022-10-22T18:22:15;1019.4220886414973;;;18.362890625;86.250034803248
61740;BME280;47645;45.288;12.038;2022-10-22T18:32:16;1019.6020509743471;;;17.9703125;89.24881188923098
61740;BME280;47645;45.288;12.038;2022-10-22T18:42:17;1019.7543438009566;;;17.9091796875;89.65886149470244
61740;BME280;47645;45.288;12.038;2022-10-22T18:52:18;1019.8851206131361;;;17.6390625;94.34781384927878
61740;BME280;47645;45.288;12.038;2022-10-22T19:02:20;1019.9977463003046;;;17.848046875;88.61674708894397
61740;BME280;47645;45.288;12.038;2022-10-22T19:12:21;1020.1538588822557;;;17.5880859375;93.2965327295879
61740;BME280;47645;45.288;12.038;2022-10-22T19:22:21;1020.1088384715708;;;17.440234375;100
61740;BME280;47645;45.288;12.038;2022-10-22T19:32:22;1020.2502853184379;;;17.5626953125;93.79441232606028
61740;BME280;47645;45.288;12.038;2022-10-22T19:42:23;1020.2898430462722;;;17.644140625;100
61740;BME280;47645;45.288;12.038;2022-10-22T19:52:24;1020.3195369000596;;;17.837890625;98.25576268738254
61740;BME280;47645;45.288;12.038;2022-10-22T20:02:26;1020.4799832549148;;;17.7818359375;97.22791874213462
61740;BME280;47645;45.288;12.038;2022-10-22T20:12:26;1020.550942170509;;;17.613671875;99.6780521584142
61740;BME280;47645;45.288;12.038;2022-10-22T20:22:27;1020.6469373964342;;;17.425;100
61740;BME280;47645;45.288;12.038;2022-10-22T20:32:28;1020.7827364185671;;;17.425;100
61740;BME280;47645;45.288;12.038;2022-10-22T20:42:29;1020.9088584182421;;;17.328125;97.57929686954118
61740;BME280;47645;45.288;12.038;2022-10-22T20:52:30;1020.9571447880721;;;17.5015625;100
61740;BME280;47645;45.288;12.038;2022-10-22T21:02:32;1020.9879545477493;;;17.62890625;100
61740;BME280;47645;45.288;12.038;2022-10-22T21:12:32;1021.1181612455454;;;17.4453125;95.59252752026626
61740;BME280;47645;45.288;12.038;2022-10-22T21:22:33;1021.0601191247224;;;17.430078125;97.91089614781734
61740;BME280;47645;45.288;12.038;2022-10-22T21:32:34;1021.1649316522255;;;17.537109375;100
61740;BME280;47645;45.288;12.038;2022-10-22T21:42:35;1021.2566164047155;;;17.3740234375;100
61740;BME280;47645;45.288;12.038;2022-10-22T21:52:36;1021.2790672018164;;;17.205859375;100
61740;BME280;47645;45.288;12.038;2022-10-22T22:02:37;1021.3950511699474;;;17.430078125;100
61740;BME280;47645;45.288;12.038;2022-10-22T22:12:38;1021.3228011090249;;;17.3892578125;100
61740;BME280;47645;45.288;12.038;2022-10-22T22:22:39;1021.2889911071115;;;17.236328125;100
61740;BME280;47645;45.288;12.038;2022-10-22T22:32:40;1021.3602399990397;;;17.2771484375;100
61740;BME280;47645;45.288;12.038;2022-10-22T22:42:41;1021.3572974626553;;;17.333203125;100
61740;BME280;47645;45.288;12.038;2022-10-22T22:52:42;1021.4711773063996;;;17.2466796875;100
61740;BME280;47645;45.288;12.038;2022-10-22T23:02:43;1021.3945415025552;;;16.9662109375;100
61740;BME280;47645;45.288;12.038;2022-10-22T23:12:44;1021.4382915738944;;;16.9306640625;100
61740;BME280;47645;45.288;12.038;2022-10-22T23:22:45;1021.3752078215668;;;16.9203125;100
61740;BME280;47645;45.288;12.038;2022-10-22T23:32:46;1021.4362510010137;;;16.9255859375;100
61740;BME280;47645;45.288;12.038;2022-10-22T23:42:47;1021.3842992360289;;;16.8490234375;100
61740;BME280;47645;45.288;12.038;2022-10-22T23:52:48;1021.4609441391535;;;16.8490234375;100
